createdAt,value
2023-01-11T00:01:02.776Z,14.48
2023-01-11T00:01:42.800Z,14.94
2023-01-11T00:02:22.767Z,15.43
2023-01-11T00:03:08.826Z,15.20
2023-01-11T00:03:48.703Z,15.43
2023-01-11T00:04:30.679Z,14.98
2023-01-11T00:05:11.740Z,14.56
2023-01-11T00:05:51.830Z,15.15
2023-01-11T00:06:31.754Z,14.88
2023-01-11T00:07:11.909Z,14.98
2023-01-11T00:07:51.726Z,14.59
2023-01-11T00:08:34.054Z,14.76
2023-01-11T00:09:14.692Z,15.40
2023-01-11T00:09:54.772Z,15.11
2023-01-11T00:10:35.714Z,14.91
2023-01-11T00:11:20.780Z,15.01
2023-01-11T00:12:01.732Z,15.43
2023-01-11T00:12:41.806Z,15.50
2023-01-11T00:13:21.702Z,15.61
2023-01-11T00:14:02.766Z,15.63
2023-01-11T00:14:42.721Z,15.44
2023-01-11T00:15:23.771Z,15.54
2023-01-11T00:16:04.738Z,16.38
2023-01-11T00:16:44.774Z,16.05
2023-01-11T00:17:24.738Z,15.29
2023-01-11T00:18:04.938Z,15.59
2023-01-11T00:18:47.739Z,15.70
2023-01-11T00:19:27.781Z,16.17
2023-01-11T00:20:07.725Z,17.02
2023-01-11T00:20:48.756Z,18.01
2023-01-11T00:21:28.710Z,19.14
2023-01-11T00:22:08.817Z,20.65
2023-01-11T00:22:49.697Z,21.30
2023-01-11T00:23:29.762Z,21.60
2023-01-11T00:24:09.706Z,21.77
2023-01-11T00:24:49.825Z,21.39
2023-01-11T00:25:29.697Z,20.70
2023-01-11T00:26:13.378Z,21.06
2023-01-11T00:26:53.721Z,20.55
2023-01-11T00:27:33.790Z,18.73
2023-01-11T00:28:13.764Z,17.64
2023-01-11T00:28:57.919Z,16.83
2023-01-11T00:29:37.685Z,16.23
2023-01-11T00:30:18.787Z,15.88
2023-01-11T00:30:59.773Z,15.98
2023-01-11T00:31:39.767Z,15.95
2023-01-11T00:32:19.706Z,15.57
2023-01-11T00:33:04.842Z,15.30
2023-01-11T00:33:44.701Z,15.13
2023-01-11T00:34:26.760Z,14.85
2023-01-11T00:35:07.674Z,16.86
2023-01-11T00:35:47.763Z,16.98
2023-01-11T00:36:27.681Z,16.45
2023-01-11T00:37:07.868Z,17.34
2023-01-11T00:37:47.714Z,18.29
2023-01-11T00:38:52.712Z,18.90
2023-01-11T00:39:27.478Z,18.42
2023-01-11T00:40:14.675Z,16.94
2023-01-11T00:40:48.596Z,16.66
2023-01-11T00:41:54.667Z,17.01
2023-01-11T00:42:47.014Z,16.86
2023-01-11T00:43:51.706Z,16.35
2023-01-11T00:44:51.687Z,15.88
2023-01-11T00:45:50.420Z,16.25
2023-01-11T00:46:49.728Z,16.89
2023-01-11T00:47:48.499Z,16.75
2023-01-11T00:48:28.666Z,17.13
2023-01-11T00:49:16.709Z,16.31
2023-01-11T00:49:50.385Z,16.33
2023-01-11T00:50:43.133Z,16.33
2023-01-11T00:51:23.582Z,15.60
2023-01-11T00:52:13.807Z,14.73
2023-01-11T00:52:48.658Z,14.13
2023-01-11T00:53:36.649Z,13.13
2023-01-11T00:54:15.483Z,12.99
2023-01-11T00:54:56.712Z,12.35
2023-01-11T00:55:33.852Z,11.85
2023-01-11T00:56:07.639Z,11.77
2023-01-11T00:56:54.561Z,11.63
2023-01-11T00:57:31.803Z,11.21
2023-01-11T00:58:08.583Z,11.11
2023-01-11T00:58:48.798Z,11.18
2023-01-11T00:59:29.844Z,11.10
2023-01-11T01:00:10.686Z,11.11
2023-01-11T01:00:50.752Z,11.43
2023-01-11T01:01:31.682Z,11.31
2023-01-11T01:02:11.823Z,10.98
2023-01-11T01:02:52.718Z,10.75
2023-01-11T01:03:32.769Z,11.48
2023-01-11T01:04:12.699Z,11.11
2023-01-11T01:04:52.785Z,11.21
2023-01-11T01:05:33.719Z,11.50
2023-01-11T01:06:13.730Z,11.66
2023-01-11T01:06:53.674Z,12.29
2023-01-11T01:07:33.727Z,12.91
2023-01-11T01:08:13.637Z,13.00
2023-01-11T01:08:53.756Z,12.57
2023-01-11T01:09:35.670Z,12.63
2023-01-11T01:10:19.001Z,12.50
2023-01-11T01:10:59.697Z,12.39
2023-01-11T01:11:39.709Z,12.75
2023-01-11T01:12:39.663Z,12.76
2023-01-11T01:13:38.236Z,12.02
2023-01-11T01:14:37.663Z,11.76
2023-01-11T01:15:18.683Z,11.74
2023-01-11T01:16:04.681Z,11.69
2023-01-11T01:16:46.196Z,11.73
2023-01-11T01:17:26.656Z,11.66
2023-01-11T01:18:07.796Z,11.75
2023-01-11T01:18:48.665Z,11.35
2023-01-11T01:19:29.768Z,11.69
2023-01-11T01:20:10.644Z,11.80
2023-01-11T01:20:50.753Z,11.88
2023-01-11T01:21:32.644Z,12.45
2023-01-11T01:22:12.913Z,12.24
2023-01-11T01:22:54.663Z,12.14
2023-01-11T01:23:34.743Z,12.04
2023-01-11T01:24:14.634Z,11.64
2023-01-11T01:24:54.711Z,11.69
2023-01-11T01:25:34.660Z,11.69
2023-01-11T01:26:14.748Z,11.86
2023-01-11T01:26:55.644Z,12.09
2023-01-11T01:27:35.696Z,12.14
2023-01-11T01:28:15.638Z,12.24
2023-01-11T01:28:56.724Z,12.88
2023-01-11T01:29:36.645Z,14.10
2023-01-11T01:30:17.709Z,15.35
2023-01-11T01:30:59.648Z,15.15
2023-01-11T01:31:40.224Z,14.34
2023-01-11T01:32:20.638Z,14.86
2023-01-11T01:33:00.779Z,15.11
2023-01-11T01:33:41.600Z,14.73
2023-01-11T01:34:22.726Z,14.89
2023-01-11T01:35:03.617Z,14.73
2023-01-11T01:35:44.695Z,14.61
2023-01-11T01:36:24.651Z,14.88
2023-01-11T01:37:04.711Z,15.01
2023-01-11T01:37:44.715Z,15.15
2023-01-11T01:38:24.913Z,15.10
2023-01-11T01:39:08.668Z,15.34
2023-01-11T01:39:49.724Z,14.98
2023-01-11T01:40:29.628Z,15.25
2023-01-11T01:41:10.695Z,15.36
2023-01-11T01:41:50.643Z,14.98
2023-01-11T01:42:31.735Z,15.29
2023-01-11T01:43:21.659Z,15.44
2023-01-11T01:44:07.658Z,15.59
2023-01-11T01:45:21.614Z,16.24
2023-01-11T01:46:01.737Z,15.91
2023-01-11T01:46:41.618Z,15.95
2023-01-11T01:47:21.663Z,16.50
2023-01-11T01:48:09.600Z,16.15
2023-01-11T01:48:57.660Z,16.31
2023-01-11T01:49:37.782Z,17.58
2023-01-11T01:50:39.660Z,22.66
2023-01-11T01:51:25.676Z,30.49
2023-01-11T01:52:06.608Z,41.17
2023-01-11T01:52:47.753Z,47.83
2023-01-11T01:53:51.590Z,47.38
2023-01-11T01:54:38.624Z,45.22
2023-01-11T01:55:17.723Z,42.25
2023-01-11T01:56:08.626Z,40.84
2023-01-11T01:56:52.782Z,37.20
2023-01-11T01:57:42.602Z,35.20
2023-01-11T01:58:20.715Z,31.29
2023-01-11T01:59:15.685Z,28.05
2023-01-11T01:59:58.612Z,25.92
2023-01-11T02:00:54.589Z,24.67
2023-01-11T02:01:53.701Z,22.40
2023-01-11T02:02:48.617Z,20.86
2023-01-11T02:03:42.608Z,20.75
2023-01-11T02:04:55.666Z,16.21
2023-01-11T02:05:36.659Z,12.73
2023-01-11T02:06:17.637Z,15.30
2023-01-11T02:07:05.577Z,15.34
2023-01-11T02:07:46.673Z,14.81
2023-01-11T02:08:43.598Z,15.35
2023-01-11T02:09:42.699Z,15.15
2023-01-11T02:10:28.590Z,13.79
2023-01-11T02:11:10.603Z,13.07
2023-01-11T02:11:45.660Z,12.46
2023-01-11T02:12:41.584Z,11.93
2023-01-11T02:13:17.645Z,11.52
2023-01-11T02:14:15.589Z,11.34
2023-01-11T02:14:50.713Z,11.19
2023-01-11T02:15:38.737Z,10.84
2023-01-11T02:16:19.677Z,10.88
2023-01-11T02:17:13.597Z,10.45
2023-01-11T02:18:07.579Z,10.44
2023-01-11T02:19:01.601Z,10.32
2023-01-11T02:20:21.572Z,10.05
2023-01-11T02:21:40.601Z,10.27
2023-01-11T02:23:17.558Z,10.88
2023-01-11T02:24:39.577Z,12.48
2023-01-11T02:26:23.576Z,13.63
2023-01-11T02:27:31.595Z,12.76
2023-01-11T02:28:23.681Z,11.27
2023-01-11T02:29:24.604Z,10.85
2023-01-11T02:30:33.662Z,10.19
2023-01-11T02:31:19.736Z,10.48
2023-01-11T02:32:17.660Z,10.59
2023-01-11T02:33:39.567Z,10.86
2023-01-11T02:34:38.714Z,10.86
2023-01-11T02:35:51.607Z,10.63
2023-01-11T02:37:07.643Z,11.10
2023-01-11T02:38:33.573Z,10.94
2023-01-11T02:39:51.572Z,10.24
2023-01-11T02:40:43.779Z,10.11
2023-01-11T02:42:09.559Z,9.82
2023-01-11T02:43:11.490Z,9.98
2023-01-11T02:44:30.586Z,10.14
2023-01-11T02:45:49.579Z,9.94
2023-01-11T02:46:49.627Z,9.54
2023-01-11T02:48:17.594Z,9.88
2023-01-11T02:49:28.557Z,9.63
2023-01-11T02:50:43.663Z,9.20
2023-01-11T02:51:33.573Z,8.96
2023-01-11T02:52:26.601Z,8.96
2023-01-11T02:53:34.604Z,8.56
2023-01-11T02:54:18.614Z,8.59
2023-01-11T02:55:03.566Z,8.54
2023-01-11T02:55:49.671Z,8.68
2023-01-11T02:56:34.574Z,8.89
2023-01-11T02:57:15.712Z,9.27
2023-01-11T02:57:57.543Z,9.55
2023-01-11T02:58:41.594Z,10.44
2023-01-11T02:59:30.542Z,11.27
2023-01-11T03:00:11.606Z,11.35
2023-01-11T03:00:53.537Z,11.31
2023-01-11T03:01:33.725Z,11.73
2023-01-11T03:02:13.642Z,11.69
2023-01-11T03:03:27.701Z,11.82
2023-01-11T03:04:07.545Z,11.14
2023-01-11T03:04:47.641Z,10.80
2023-01-11T03:05:28.554Z,10.61
2023-01-11T03:06:25.646Z,10.60
2023-01-11T03:07:52.621Z,10.15
2023-01-11T03:08:51.601Z,10.02
2023-01-11T03:09:54.529Z,9.94
2023-01-11T03:10:35.574Z,9.51
2023-01-11T03:12:06.517Z,9.70
2023-01-11T03:13:32.661Z,9.25
2023-01-11T03:14:42.551Z,9.13
2023-01-11T03:16:14.545Z,9.11
2023-01-11T03:17:28.534Z,9.14
2023-01-11T03:19:07.537Z,8.94
2023-01-11T03:20:05.521Z,8.65
2023-01-11T03:21:05.521Z,8.68
2023-01-11T03:22:20.502Z,8.44
2023-01-11T03:23:20.502Z,8.25
2023-01-11T03:24:40.536Z,8.29
2023-01-11T03:25:49.485Z,8.29
2023-01-11T03:27:03.532Z,8.50
2023-01-11T03:28:23.569Z,8.55
2023-01-11T03:29:30.524Z,8.84
2023-01-11T03:30:27.576Z,8.77
2023-01-11T03:31:27.634Z,8.77
2023-01-11T03:32:22.482Z,8.70
2023-01-11T03:33:15.575Z,8.77
2023-01-11T03:34:23.512Z,8.71
2023-01-11T03:35:34.574Z,9.02
2023-01-11T03:36:36.490Z,9.04
2023-01-11T03:37:40.494Z,8.77
2023-01-11T03:38:46.503Z,8.93
2023-01-11T03:39:57.494Z,8.99
2023-01-11T03:41:14.547Z,9.05
2023-01-11T03:42:12.470Z,8.74
2023-01-11T03:43:17.487Z,8.35
2023-01-11T03:44:15.484Z,8.35
2023-01-11T03:45:11.510Z,8.68
2023-01-11T03:46:24.593Z,9.24
2023-01-11T03:47:21.500Z,8.61
2023-01-11T03:48:17.483Z,8.74
2023-01-11T03:49:39.473Z,8.80
2023-01-11T03:50:33.479Z,9.07
2023-01-11T03:51:31.523Z,8.94
2023-01-11T03:52:28.500Z,8.51
2023-01-11T03:53:24.478Z,8.73
2023-01-11T03:54:21.511Z,9.15
2023-01-11T03:55:18.487Z,9.56
2023-01-11T03:56:13.459Z,9.26
2023-01-11T03:57:24.477Z,9.34
2023-01-11T03:58:04.513Z,10.00
2023-01-11T03:58:45.463Z,10.30
2023-01-11T03:59:25.537Z,10.93
2023-01-11T04:00:06.470Z,10.85
2023-01-11T04:00:47.579Z,10.76
2023-01-11T04:01:27.483Z,10.77
2023-01-11T04:02:08.532Z,10.55
2023-01-11T04:02:49.493Z,10.73
2023-01-11T04:03:29.533Z,11.26
2023-01-11T04:04:10.515Z,10.84
2023-01-11T04:04:51.541Z,10.93
2023-01-11T04:05:32.472Z,10.76
2023-01-11T04:06:13.548Z,10.46
2023-01-11T04:06:54.516Z,10.70
2023-01-11T04:07:35.540Z,10.23
2023-01-11T04:08:17.542Z,10.11
2023-01-11T04:08:57.504Z,10.04
2023-01-11T04:09:38.341Z,10.09
2023-01-11T04:10:18.516Z,9.93
2023-01-11T04:10:58.489Z,9.90
2023-01-11T04:11:38.550Z,9.60
2023-01-11T04:12:19.470Z,9.43
2023-01-11T04:12:59.600Z,9.64
2023-01-11T04:13:40.507Z,9.55
2023-01-11T04:14:20.510Z,9.69
2023-01-11T04:15:00.480Z,9.68
2023-01-11T04:15:40.507Z,9.76
2023-01-11T04:16:20.507Z,9.69
2023-01-11T04:17:00.574Z,9.75
2023-01-11T04:17:40.453Z,10.09
2023-01-11T04:18:20.557Z,10.04
2023-01-11T04:19:00.477Z,10.29
2023-01-11T04:19:41.548Z,10.48
2023-01-11T04:20:22.447Z,10.68
2023-01-11T04:21:02.549Z,10.70
2023-01-11T04:21:42.451Z,10.40
2023-01-11T04:22:22.502Z,10.31
2023-01-11T04:23:02.461Z,10.60
2023-01-11T04:23:42.535Z,10.27
2023-01-11T04:24:24.454Z,10.21
2023-01-11T04:25:04.519Z,10.31
2023-01-11T04:25:44.450Z,10.15
2023-01-11T04:26:24.528Z,10.06
2023-01-11T04:27:04.472Z,9.86
2023-01-11T04:27:44.622Z,9.79
2023-01-11T04:28:24.443Z,9.99
2023-01-11T04:29:04.548Z,9.79
2023-01-11T04:29:45.447Z,9.36
2023-01-11T04:30:25.525Z,9.60
2023-01-11T04:31:05.455Z,9.25
2023-01-11T04:31:45.543Z,9.21
2023-01-11T04:32:25.438Z,8.90
2023-01-11T04:33:06.516Z,8.90
2023-01-11T04:33:46.464Z,8.89
2023-01-11T04:34:26.532Z,8.79
2023-01-11T04:35:06.467Z,8.64
2023-01-11T04:35:46.571Z,8.82
2023-01-11T04:36:26.436Z,8.60
2023-01-11T04:37:06.544Z,8.24
2023-01-11T04:37:47.454Z,8.02
2023-01-11T04:38:27.541Z,7.93
2023-01-11T04:39:07.426Z,8.01
2023-01-11T04:39:47.494Z,8.10
2023-01-11T04:40:28.448Z,8.35
2023-01-11T04:41:27.113Z,8.19
2023-01-11T04:42:26.410Z,8.01
2023-01-11T04:43:06.493Z,8.18
2023-01-11T04:43:47.422Z,8.02
2023-01-11T04:44:27.506Z,7.78
2023-01-11T04:45:07.433Z,8.18
2023-01-11T04:45:47.533Z,8.11
2023-01-11T04:46:21.480Z,8.24
2023-01-11T04:47:08.412Z,8.35
2023-01-11T04:47:42.476Z,8.27
2023-01-11T04:48:29.476Z,8.69
2023-01-11T04:49:03.469Z,8.76
2023-01-11T04:49:51.404Z,8.86
2023-01-11T04:50:25.529Z,8.96
2023-01-11T04:51:16.444Z,8.35
2023-01-11T04:51:50.530Z,8.05
2023-01-11T04:52:37.461Z,8.07
2023-01-11T04:53:11.490Z,8.20
2023-01-11T04:53:58.451Z,8.19
2023-01-11T04:54:32.504Z,8.35
2023-01-11T04:55:19.420Z,8.20
2023-01-11T04:55:53.590Z,8.09
2023-01-11T04:56:41.426Z,8.19
2023-01-11T04:57:19.536Z,7.97
2023-01-11T04:58:06.407Z,8.27
2023-01-11T04:58:42.488Z,8.29
2023-01-11T04:59:29.408Z,8.23
2023-01-11T05:00:06.152Z,8.25
2023-01-11T05:00:53.432Z,8.10
2023-01-11T05:01:27.546Z,8.07
2023-01-11T05:02:07.433Z,7.76
2023-01-11T05:02:47.511Z,8.36
2023-01-11T05:03:27.394Z,9.79
2023-01-11T05:04:07.488Z,11.51
2023-01-11T05:04:48.427Z,10.82
2023-01-11T05:05:28.476Z,9.86
2023-01-11T05:06:09.411Z,9.25
2023-01-11T05:06:49.477Z,9.32
2023-01-11T05:07:29.414Z,8.99
2023-01-11T05:08:09.521Z,8.66
2023-01-11T05:08:53.397Z,8.41
2023-01-11T05:09:33.464Z,8.27
2023-01-11T05:10:14.423Z,8.09
2023-01-11T05:11:02.549Z,8.02
2023-01-11T05:11:42.400Z,7.85
2023-01-11T05:12:22.465Z,7.19
2023-01-11T05:13:03.453Z,7.78
2023-01-11T05:13:43.593Z,7.70
2023-01-11T05:14:24.382Z,7.30
2023-01-11T05:15:04.530Z,7.53
2023-01-11T05:15:44.375Z,7.75
2023-01-11T05:16:30.600Z,7.78
2023-01-11T05:17:11.441Z,8.24
2023-01-11T05:17:51.509Z,8.16
2023-01-11T05:18:31.407Z,7.61
2023-01-11T05:19:12.498Z,7.44
2023-01-11T05:19:52.371Z,7.59
2023-01-11T05:20:32.459Z,7.84
2023-01-11T05:21:13.439Z,7.75
2023-01-11T05:21:54.498Z,7.85
2023-01-11T05:22:34.387Z,7.49
2023-01-11T05:23:14.468Z,7.74
2023-01-11T05:23:55.419Z,7.95
2023-01-11T05:24:35.458Z,7.80
2023-01-11T05:25:16.368Z,7.84
2023-01-11T05:25:56.461Z,7.53
2023-01-11T05:26:40.394Z,7.78
2023-01-11T05:27:20.448Z,7.50
2023-01-11T05:28:00.387Z,7.43
2023-01-11T05:28:41.512Z,7.47
2023-01-11T05:29:27.586Z,7.74
2023-01-11T05:30:08.497Z,7.90
2023-01-11T05:30:48.383Z,7.50
2023-01-11T05:31:29.487Z,7.59
2023-01-11T05:32:09.386Z,7.85
2023-01-11T05:32:49.453Z,7.68
2023-01-11T05:33:29.369Z,7.28
2023-01-11T05:34:09.603Z,7.54
2023-01-11T05:34:50.391Z,7.76
2023-01-11T05:35:30.467Z,7.61
2023-01-11T05:36:15.401Z,8.01
2023-01-11T05:37:09.371Z,8.01
2023-01-11T05:38:03.382Z,7.65
2023-01-11T05:39:00.374Z,7.49
2023-01-11T05:39:54.402Z,7.74
2023-01-11T05:40:49.415Z,7.53
2023-01-11T05:41:43.370Z,7.55
2023-01-11T05:42:37.387Z,7.60
2023-01-11T05:43:31.416Z,7.84
2023-01-11T05:44:44.415Z,8.10
2023-01-11T05:45:38.408Z,7.75
2023-01-11T05:46:18.451Z,7.79
2023-01-11T05:46:58.378Z,7.45
2023-01-11T05:47:38.443Z,7.54
2023-01-11T05:48:21.411Z,7.72
2023-01-11T05:49:02.482Z,7.66
2023-01-11T05:49:42.367Z,7.89
2023-01-11T05:50:23.563Z,7.72
2023-01-11T05:51:03.371Z,7.96
2023-01-11T05:51:43.433Z,7.64
2023-01-11T05:52:24.358Z,7.30
2023-01-11T05:53:04.547Z,7.49
2023-01-11T05:53:44.333Z,7.63
2023-01-11T05:54:24.509Z,7.81
2023-01-11T05:55:05.455Z,7.53
2023-01-11T05:55:45.449Z,7.61
2023-01-11T05:56:28.410Z,7.34
2023-01-11T05:57:11.543Z,7.38
2023-01-11T05:57:52.340Z,7.22
2023-01-11T05:58:33.450Z,7.57
2023-01-11T05:59:13.375Z,7.26
2023-01-11T05:59:53.442Z,7.28
2023-01-11T06:00:33.336Z,7.49
2023-01-11T06:01:13.422Z,7.38
2023-01-11T06:01:54.383Z,7.24
2023-01-11T06:02:34.503Z,7.32
2023-01-11T06:03:14.420Z,7.54
2023-01-11T06:03:54.460Z,7.57
2023-01-11T06:04:34.360Z,7.80
2023-01-11T06:05:16.436Z,8.13
2023-01-11T06:05:57.331Z,8.57
2023-01-11T06:06:38.445Z,8.55
2023-01-11T06:07:18.363Z,8.24
2023-01-11T06:08:00.381Z,7.82
2023-01-11T06:08:40.331Z,8.18
2023-01-11T06:09:20.397Z,8.34
2023-01-11T06:10:00.340Z,8.13
2023-01-11T06:10:54.370Z,7.90
2023-01-11T06:11:48.327Z,7.88
2023-01-11T06:12:35.343Z,8.09
2023-01-11T06:13:27.855Z,7.96
2023-01-11T06:14:14.324Z,8.19
2023-01-11T06:14:48.380Z,8.20
2023-01-11T06:15:35.354Z,8.55
2023-01-11T06:16:15.544Z,8.35
2023-01-11T06:17:03.325Z,8.35
2023-01-11T06:17:44.410Z,8.49
2023-01-11T06:18:38.331Z,8.24
2023-01-11T06:19:32.318Z,8.38
2023-01-11T06:20:26.319Z,8.46
2023-01-11T06:21:21.370Z,8.29
2023-01-11T06:22:15.342Z,8.69
2023-01-11T06:23:02.374Z,8.54
2023-01-11T06:23:39.406Z,8.16
2023-01-11T06:24:26.314Z,8.35
2023-01-11T06:25:00.405Z,8.66
2023-01-11T06:25:47.324Z,8.49
2023-01-11T06:26:24.464Z,8.39
2023-01-11T06:27:11.403Z,8.16
2023-01-11T06:27:45.435Z,8.61
2023-01-11T06:28:25.364Z,8.73
2023-01-11T06:29:05.380Z,8.57
2023-01-11T06:29:45.331Z,8.69
2023-01-11T06:30:28.383Z,8.74
2023-01-11T06:31:09.379Z,8.70
2023-01-11T06:31:49.408Z,8.63
2023-01-11T06:32:29.486Z,8.40
2023-01-11T06:33:10.402Z,8.18
2023-01-11T06:33:51.313Z,8.10
2023-01-11T06:34:31.375Z,8.02
2023-01-11T06:35:12.353Z,8.11
2023-01-11T06:35:52.412Z,8.40
2023-01-11T06:36:32.297Z,8.05
2023-01-11T06:37:12.471Z,7.68
2023-01-11T06:37:52.407Z,7.93
2023-01-11T06:38:33.465Z,8.20
2023-01-11T06:39:14.361Z,8.36
2023-01-11T06:39:54.352Z,8.34
2023-01-11T06:40:35.298Z,8.07
2023-01-11T06:41:16.390Z,8.35
2023-01-11T06:41:56.304Z,8.15
2023-01-11T06:42:36.459Z,7.95
2023-01-11T06:43:17.298Z,8.14
2023-01-11T06:43:58.386Z,8.23
2023-01-11T06:44:38.378Z,8.01
2023-01-11T06:45:32.273Z,8.07
2023-01-11T06:46:29.163Z,8.16
2023-01-11T06:47:23.306Z,8.38
2023-01-11T06:48:18.498Z,8.43
2023-01-11T06:49:12.318Z,8.20
2023-01-11T06:49:59.299Z,8.30
2023-01-11T06:50:33.351Z,8.29
2023-01-11T06:51:22.309Z,8.88
2023-01-11T06:51:56.377Z,9.16
2023-01-11T06:52:43.277Z,9.63
2023-01-11T06:53:17.317Z,9.77
2023-01-11T06:54:04.253Z,9.75
2023-01-11T06:54:38.366Z,9.25
2023-01-11T06:55:19.324Z,9.38
2023-01-11T06:56:01.386Z,9.61
2023-01-11T06:56:41.343Z,9.77
2023-01-11T06:57:21.369Z,10.46
2023-01-11T06:58:02.288Z,10.50
2023-01-11T06:58:42.419Z,10.85
2023-01-11T06:59:23.276Z,11.64
2023-01-11T07:00:03.695Z,11.34
2023-01-11T07:00:44.297Z,10.76
2023-01-11T07:01:26.543Z,11.32
2023-01-11T07:02:06.280Z,11.41
2023-01-11T07:02:46.333Z,11.51
2023-01-11T07:03:30.282Z,11.77
2023-01-11T07:04:10.571Z,11.70
2023-01-11T07:04:50.440Z,11.61
2023-01-11T07:05:32.777Z,11.55
2023-01-11T07:06:14.289Z,11.48
2023-01-11T07:06:55.553Z,11.68
2023-01-11T07:07:35.477Z,11.18
2023-01-11T07:08:16.376Z,10.91
2023-01-11T07:08:56.287Z,10.76
2023-01-11T07:09:36.567Z,10.85
2023-01-11T07:10:20.315Z,10.43
2023-01-11T07:11:01.434Z,10.10
2023-01-11T07:11:45.323Z,10.50
2023-01-11T07:12:25.559Z,10.59
2023-01-11T07:13:05.291Z,10.43
2023-01-11T07:13:45.363Z,10.49
2023-01-11T07:14:27.306Z,9.99
2023-01-11T07:15:12.405Z,10.44
2023-01-11T07:15:58.370Z,10.43
2023-01-11T07:16:39.351Z,10.40
2023-01-11T07:17:19.290Z,10.74
2023-01-11T07:18:04.387Z,10.84
2023-01-11T07:18:46.535Z,10.55
2023-01-11T07:19:27.338Z,5.99
2023-01-11T07:20:08.259Z,1.63
2023-01-11T07:20:48.551Z,1.05
2023-01-11T07:21:28.268Z,0.61
2023-01-11T07:22:08.331Z,0.22
2023-01-11T07:22:48.323Z,0.00
2023-01-11T07:23:28.314Z,0.00
2023-01-11T07:24:09.294Z,0.00
2023-01-11T07:24:50.308Z,0.00
2023-01-11T07:25:31.300Z,0.00
2023-01-11T07:26:17.276Z,0.00
2023-01-11T07:26:59.236Z,0.00
2023-01-11T07:27:39.316Z,0.00
2023-01-11T07:28:19.309Z,0.00
2023-01-11T07:29:00.296Z,0.00
2023-01-11T07:29:40.233Z,0.00
2023-01-11T07:30:20.357Z,0.00
2023-01-11T07:31:00.459Z,0.00
2023-01-11T07:31:40.451Z,0.00
2023-01-11T07:32:21.246Z,0.00
2023-01-11T07:33:06.084Z,0.00
2023-01-11T07:33:47.294Z,0.00
2023-01-11T07:34:27.313Z,0.00
2023-01-11T07:35:07.253Z,0.00
2023-01-11T07:35:47.423Z,0.00
2023-01-11T07:36:27.238Z,0.00
2023-01-11T07:37:09.562Z,0.00
2023-01-11T07:38:09.240Z,0.00
2023-01-11T07:38:56.257Z,0.00
2023-01-11T07:39:50.286Z,0.00
2023-01-11T07:40:44.270Z,0.00
2023-01-11T07:41:56.272Z,0.00
2023-01-11T07:43:08.255Z,0.00
2023-01-11T07:44:02.271Z,0.00
2023-01-11T07:44:56.216Z,0.00
2023-01-11T07:45:52.411Z,0.00
2023-01-11T07:46:46.369Z,0.00
2023-01-11T07:47:40.257Z,0.00
2023-01-11T07:48:30.806Z,0.00
2023-01-11T07:49:12.282Z,0.00
2023-01-11T07:49:53.300Z,0.00
2023-01-11T07:50:34.237Z,0.00
2023-01-11T07:51:16.612Z,0.00
2023-01-11T07:51:58.233Z,0.00
2023-01-11T07:52:38.289Z,0.00
2023-01-11T07:53:19.235Z,0.00
2023-01-11T07:54:02.432Z,0.00
2023-01-11T07:54:43.242Z,0.00
2023-01-11T07:55:24.304Z,0.00
2023-01-11T07:56:04.254Z,0.00
2023-01-11T07:56:44.324Z,0.00
2023-01-11T07:57:24.210Z,0.00
2023-01-11T07:58:04.332Z,0.00
2023-01-11T07:58:45.209Z,0.00
2023-01-11T07:59:25.367Z,0.00
2023-01-11T08:00:05.239Z,0.00
2023-01-11T08:00:46.375Z,0.00
2023-01-11T08:01:27.217Z,0.00
2023-01-11T08:02:07.315Z,0.00
2023-01-11T08:02:48.288Z,0.00
2023-01-11T08:03:28.434Z,0.00
2023-01-11T08:04:08.211Z,0.00
2023-01-11T08:04:48.306Z,0.00
2023-01-11T08:05:29.221Z,0.00
2023-01-11T08:06:09.350Z,0.00
2023-01-11T08:06:50.232Z,0.00
2023-01-11T08:07:30.403Z,0.00
2023-01-11T08:08:11.228Z,0.00
2023-01-11T08:08:51.314Z,0.00
2023-01-11T08:09:31.210Z,0.00
2023-01-11T08:10:12.249Z,0.00
2023-01-11T08:10:53.207Z,0.00
2023-01-11T08:11:52.051Z,0.00
2023-01-11T08:12:51.675Z,0.00
2023-01-11T08:14:01.543Z,0.00
2023-01-11T08:14:47.197Z,0.00
2023-01-11T08:15:27.297Z,0.00
2023-01-11T08:16:07.219Z,0.00
2023-01-11T08:16:47.342Z,0.00
2023-01-11T08:17:27.251Z,0.00
2023-01-11T08:18:07.681Z,0.00
2023-01-11T08:18:47.232Z,0.00
2023-01-11T08:19:27.276Z,0.00
2023-01-11T08:20:07.214Z,0.00
2023-01-11T08:20:47.585Z,0.00
2023-01-11T08:21:30.210Z,0.00
2023-01-11T08:22:10.401Z,0.00
2023-01-11T08:22:50.205Z,0.00
2023-01-11T08:23:31.230Z,0.00
2023-01-11T08:24:12.186Z,0.00
2023-01-11T08:24:52.325Z,0.00
2023-01-11T08:25:32.179Z,0.00
2023-01-11T08:26:16.902Z,0.00
2023-01-11T08:26:57.331Z,0.00
2023-01-11T08:27:40.580Z,0.00
2023-01-11T08:28:20.204Z,0.00
2023-01-11T08:29:01.274Z,0.00
2023-01-11T08:29:42.227Z,0.00
2023-01-11T08:30:22.283Z,0.00
2023-01-11T08:31:02.227Z,0.00
2023-01-11T08:31:43.237Z,0.00
2023-01-11T08:32:23.213Z,0.00
2023-01-11T08:33:03.367Z,0.00
2023-01-11T08:33:43.191Z,0.00
2023-01-11T08:34:23.262Z,0.00
2023-01-11T08:35:03.176Z,0.00
2023-01-11T08:35:46.260Z,0.00
2023-01-11T08:36:26.160Z,0.00
2023-01-11T08:37:06.339Z,0.00
2023-01-11T08:37:46.185Z,0.00
2023-01-11T08:38:26.285Z,0.00
2023-01-11T08:39:07.182Z,0.00
2023-01-11T08:39:48.495Z,0.00
2023-01-11T08:40:28.190Z,0.00
2023-01-11T08:41:11.248Z,0.00
2023-01-11T08:41:51.177Z,0.00
2023-01-11T08:42:32.576Z,0.00
2023-01-11T08:43:12.176Z,0.00
2023-01-11T08:43:52.315Z,0.00
2023-01-11T08:44:34.498Z,0.00
2023-01-11T08:45:16.257Z,0.00
2023-01-11T08:45:57.180Z,0.00
2023-01-11T08:46:38.089Z,0.00
2023-01-11T08:47:19.228Z,0.00
2023-01-11T08:48:01.325Z,0.00
2023-01-11T08:48:42.194Z,0.00
2023-01-11T08:49:37.171Z,0.00
2023-01-11T08:50:32.151Z,0.00
2023-01-11T08:51:27.163Z,0.00
2023-01-11T08:52:26.197Z,0.00
2023-01-11T08:53:20.170Z,0.00
2023-01-11T08:54:07.180Z,0.00
2023-01-11T08:54:41.219Z,0.00
2023-01-11T08:55:28.160Z,0.00
2023-01-11T08:56:02.240Z,0.00
2023-01-11T08:56:50.143Z,0.00
2023-01-11T08:57:24.216Z,0.00
2023-01-11T08:58:11.151Z,0.00
2023-01-11T08:58:45.289Z,0.00
2023-01-11T08:59:32.197Z,0.00
2023-01-11T09:00:06.257Z,0.00
2023-01-11T09:00:54.161Z,0.00
2023-01-11T09:01:28.277Z,0.00
2023-01-11T09:03:18.182Z,0.00
2023-01-11T09:04:23.779Z,0.00
2023-01-11T09:05:05.176Z,0.00
2023-01-11T09:05:46.245Z,0.00
2023-01-11T09:06:27.167Z,0.00
2023-01-11T09:07:11.154Z,0.00
2023-01-11T09:07:52.179Z,0.00
2023-01-11T09:08:33.212Z,0.00
2023-01-11T09:09:14.150Z,0.00
2023-01-11T09:09:54.238Z,0.00
2023-01-11T09:10:34.131Z,0.00
2023-01-11T09:11:32.590Z,0.00
2023-01-11T09:12:13.140Z,0.00
2023-01-11T09:12:53.215Z,0.00
2023-01-11T09:13:34.131Z,0.00
2023-01-11T09:14:14.221Z,0.00
2023-01-11T09:14:54.120Z,0.00
2023-01-11T09:15:41.171Z,0.00
2023-01-11T09:16:35.148Z,0.00
2023-01-11T09:17:29.115Z,0.00
2023-01-11T09:18:23.124Z,0.00
2023-01-11T09:19:17.145Z,0.00
2023-01-11T09:20:11.142Z,0.00
2023-01-11T09:20:59.177Z,0.00
2023-01-11T09:21:33.208Z,0.00
2023-01-11T09:22:20.119Z,0.00
2023-01-11T09:22:59.261Z,0.00
2023-01-11T09:23:46.106Z,0.00
2023-01-11T09:24:21.312Z,0.00
2023-01-11T09:25:08.124Z,0.00
2023-01-11T09:25:42.190Z,0.00
2023-01-11T09:26:22.139Z,0.04
2023-01-11T09:27:05.260Z,0.00
2023-01-11T09:27:45.119Z,0.00
2023-01-11T09:28:25.239Z,0.00
2023-01-11T09:29:05.227Z,0.00
2023-01-11T09:29:46.337Z,0.00
2023-01-11T09:30:28.107Z,0.00
2023-01-11T09:31:08.246Z,0.00
2023-01-11T09:31:48.194Z,0.00
2023-01-11T09:32:28.285Z,0.00
2023-01-11T09:33:09.139Z,0.04
2023-01-11T09:33:49.329Z,0.01
2023-01-11T09:34:31.206Z,0.00
2023-01-11T09:35:12.222Z,0.00
2023-01-11T09:35:53.105Z,0.00
2023-01-11T09:36:35.774Z,0.00
2023-01-11T09:37:16.134Z,0.00
2023-01-11T09:37:58.390Z,0.00
2023-01-11T09:38:40.151Z,0.00
2023-01-11T09:39:27.438Z,0.00
2023-01-11T09:40:08.113Z,0.00
2023-01-11T09:41:37.309Z,0.00
2023-01-11T09:42:38.109Z,0.00
2023-01-11T09:43:21.205Z,0.00
2023-01-11T09:44:23.105Z,0.00
2023-01-11T09:45:11.433Z,0.00
2023-01-11T09:45:53.095Z,0.00
2023-01-11T09:46:36.052Z,0.04
2023-01-11T09:47:25.103Z,0.00
2023-01-11T09:48:29.134Z,0.00
2023-01-11T09:49:11.980Z,0.00
2023-01-11T09:50:02.120Z,0.00
2023-01-11T09:50:47.854Z,0.00
2023-01-11T09:51:29.183Z,0.00
2023-01-11T09:52:33.105Z,0.00
2023-01-11T09:53:24.121Z,0.00
2023-01-11T09:54:06.118Z,0.00
2023-01-11T09:54:40.207Z,0.00
2023-01-11T09:55:25.090Z,0.00
2023-01-11T09:56:09.082Z,0.00
2023-01-11T09:57:00.356Z,0.00
2023-01-11T09:57:50.225Z,0.05
2023-01-11T09:59:16.108Z,0.00
2023-01-11T10:00:00.740Z,0.04
2023-01-11T10:00:55.640Z,0.06
2023-01-11T10:02:12.106Z,0.00